Terminal Aerodrome Forecast
Issued by NWS

Home | Current Version | Previous Version | Text Only | Print | Product List | Glossary On
Versions: 1 2 3 4 5 6 7 8 9 10 11 12 13 14 15 16 17
000
FTUS46 KSGX 271300 AAA
TAFPSP
TAF AMD
KPSP 271345Z 2714/2812 VRB03KT P6SM SCT015 OVC045
      TEMPO 2714/2716 5SM BR BKN015
     FM271800 12005KT P6SM SCT035 SCT100
     FM280100 32005KT P6SM SCT250=

USA.gov is the U.S. government's official web portal to all federal, state and local government web resources and services.